Lancaster, KY (40444)

3:39 PM EST on December 20, 2014 (GMT -0500)
Berwick Drive | Change Station
CLOSE
Current Station
Personal Weather Station
Location: Danville, KY
Elevation: 980 ft
Nearby Weather Stations

Elev 980 ft 37.66 °N, 84.79 °W | Updated 4 minutes ago

Overcast
Overcast
37.6 °F
Feels Like 38 °F
N
1.0
Wind Variable Wind from NNW
Gusts 1.0 mph

Today
High -- | Low -- °F
--% Chance of Precip.
Yesterday
High -- | Low -- °F
Precip. -- in
7:49 AM 5:22 PM
Waning Crescent, 2% visible
Pressure 30.22 in
Visibility 10.0 miles
Clouds Overcast 4900 ft
Windchill 38 °F
Dew Point 29 °F
Humidity 71%
Rainfall 0.00 in
Snow Depth Not available.
UV 0 out of 12
Pollen .10 out of 12
Air Quality Not available.
Flu Activity Not available.
METAR KDVK 202015Z AUTO 00000KT 10SM OVC049 01/M02 A3022 RMK AO2

More Conditions Fewer Conditions

Pressure 30.22 in
Visibility 10.0 miles
Clouds Overcast 4900 ft
Windchill 38 °F
Dew Point 29 °F
Humidity 71%
Rainfall 0.00 in
Snow Depth Not available.
UV 0 out of 12
Pollen .10 out of 12
Air Quality Not available.
Flu Activity Not available.
METAR KDVK 202015Z AUTO 00000KT 10SM OVC049 01/M02 A3022 RMK AO2

More Conditions Fewer Conditions

10-Day Weather Forecast

Almanac

Astronomy

Dec. 20, 2014 Rise Set
Actual Time
Civil Twilight
Nautical Twilight
Astronomical Twilight
Moon
Length of Visible Light
Length of Day
Tomorrow will be .
, % of the Moon is Illuminated

Today's Extremes

State Highs State Lows

Community

WunderPhotos

Upload Photos

1,779,270 photos uploaded!

WunderBlogs® & News

Nearby

Air Quality

  Air Quality AQ Index Pollutant
Not available.

Snow Depth

Station Depth Elevation

Earthquake Activity

City Distance Mag. Time & Date
Minimum magnitude displayed is 2.5.

Coastal Water Temperatures

Place Temperature

Nearby Weather Stations